Time;durP1;ratioP1;P1;durP2;ratioP2;P2;SDS_P1;SDS_P2;PMS_P1;PMS_P2;Temp;Humidity;BMP_temperature;BMP_pressure;BME280_temperature;BME280_humidity;BME280_pressure;Samples;Min_cycle;Max_cycle;Signal;HPM_P1;HPM_P2
2021/01/16 00:00:27;;;;;;;22.67;16.23;;;1.40;91.50;;;;;;5029881;28;20061;-67
2021/01/16 00:02:54;;;;;;;18.58;13.48;;;1.40;91.60;;;;;;5027428;28;20042;-67
2021/01/16 00:05:22;;;;;;;21.00;14.90;;;1.40;91.90;;;;;;5026590;28;20030;-67
2021/01/16 00:07:59;;;;;;;18.80;13.95;;;1.30;91.80;;;;;;5028643;28;20743;-67
2021/01/16 00:10:25;;;;;;;19.02;14.40;;;1.30;91.90;;;;;;5031334;28;20057;-67
2021/01/16 00:12:50;;;;;;;19.05;14.63;;;1.40;91.80;;;;;;5026768;28;20045;-67
2021/01/16 00:15:16;;;;;;;20.95;14.00;;;1.40;91.40;;;;;;5022863;28;20033;-67
2021/01/16 00:17:43;;;;;;;22.83;15.38;;;1.40;91.30;;;;;;5028262;28;20045;-67
2021/01/16 00:20:11;;;;;;;20.02;15.95;;;1.40;90.90;;;;;;5028155;28;20029;-67
2021/01/16 00:22:48;;;;;;;21.80;15.32;;;1.50;91.00;;;;;;5025398;28;20033;-67
2021/01/16 00:25:13;;;;;;;21.70;15.55;;;1.60;90.90;;;;;;5023802;28;20041;-67
2021/01/16 00:27:39;;;;;;;24.08;16.15;;;1.50;90.80;;;;;;5024418;28;20037;-66
2021/01/16 00:30:07;;;;;;;19.35;15.07;;;1.40;90.80;;;;;;5027719;28;20037;-67
2021/01/16 00:32:32;;;;;;;21.60;15.45;;;1.40;90.70;;;;;;5026822;28;20401;-67
2021/01/16 00:34:58;;;;;;;23.40;16.30;;;1.40;90.90;;;;;;5027106;28;20044;-67
2021/01/16 00:37:23;;;;;;;22.23;15.70;;;1.40;90.80;;;;;;5025852;28;20029;-67
2021/01/16 00:39:49;;;;;;;24.88;16.20;;;1.50;90.60;;;;;;5023397;28;20041;-66
2021/01/16 00:42:15;;;;;;;21.50;15.65;;;1.40;90.60;;;;;;5031155;28;20057;-67
2021/01/16 00:44:41;;;;;;;21.63;15.23;;;1.40;90.90;;;;;;5023874;28;20045;-67
2021/01/16 00:47:06;;;;;;;19.58;15.13;;;1.40;90.70;;;;;;5027411;28;20050;-67
2021/01/16 00:49:32;;;;;;;21.58;15.75;;;1.40;90.50;;;;;;5027198;28;20403;-67
2021/01/16 00:51:57;;;;;;;22.75;16.25;;;1.40;90.60;;;;;;5048117;28;20065;-67
2021/01/16 00:54:23;;;;;;;20.40;15.93;;;1.50;90.60;;;;;;5021447;28;20044;-67
2021/01/16 00:56:51;;;;;;;26.60;16.70;;;1.50;90.30;;;;;;5030382;28;20056;-67
2021/01/16 00:59:17;;;;;;;26.60;15.98;;;1.40;90.40;;;;;;5027420;28;20040;-67
2021/01/16 01:01:43;;;;;;;22.08;15.48;;;1.40;90.40;;;;;;5028709;28;20042;-67
2021/01/16 01:04:09;;;;;;;24.42;15.65;;;1.50;90.40;;;;;;5027607;28;20091;-67
2021/01/16 01:06:35;;;;;;;22.02;16.08;;;1.40;90.50;;;;;;5026158;28;20136;-67
2021/01/16 01:09:01;;;;;;;21.23;15.90;;;1.40;90.70;;;;;;5025058;28;20041;-67
2021/01/16 01:11:27;;;;;;;24.50;15.95;;;1.40;90.80;;;;;;5029599;28;20034;-67
2021/01/16 01:13:52;;;;;;;23.55;15.82;;;1.40;90.60;;;;;;5025625;28;20494;-67
2021/01/16 01:16:18;;;;;;;27.25;16.77;;;1.40;90.60;;;;;;5027329;28;20049;-67
2021/01/16 01:18:43;;;;;;;22.77;15.45;;;1.40;90.50;;;;;;5026433;28;20116;-67
2021/01/16 01:21:09;;;;;;;24.73;16.92;;;1.40;90.60;;;;;;5028083;28;20427;-67
2021/01/16 01:23:35;;;;;;;22.65;16.38;;;1.40;90.70;;;;;;5026551;28;21771;-67
2021/01/16 01:26:00;;;;;;;24.35;16.50;;;1.40;90.70;;;;;;5026207;28;20368;-67
2021/01/16 01:28:26;;;;;;;24.63;16.95;;;1.40;90.70;;;;;;5029085;28;20037;-67
2021/01/16 01:30:51;;;;;;;21.08;15.80;;;1.40;90.60;;;;;;5018117;28;20041;-67
2021/01/16 01:33:17;;;;;;;25.08;18.13;;;1.40;90.70;;;;;;5024552;28;20097;-67
2021/01/16 01:35:44;;;;;;;25.10;16.67;;;1.40;90.80;;;;;;5022408;28;20037;-67
2021/01/16 01:38:17;;;;;;;24.45;16.70;;;1.40;90.80;;;;;;5025738;28;20531;-67
2021/01/16 01:40:44;;;;;;;25.25;16.45;;;1.40;90.90;;;;;;5027360;28;20379;-67
2021/01/16 01:43:11;;;;;;;23.25;17.02;;;1.40;91.00;;;;;;5026550;28;20050;-67
2021/01/16 01:45:36;;;;;;;24.88;15.13;;;1.40;90.90;;;;;;5022602;28;20113;-67
2021/01/16 01:48:02;;;;;;;22.42;16.27;;;1.40;90.70;;;;;;5027558;28;20144;-67
2021/01/16 01:50:29;;;;;;;21.65;15.65;;;1.30;90.70;;;;;;5025650;28;20033;-67
2021/01/16 01:52:56;;;;;;;23.30;15.70;;;1.40;90.70;;;;;;5025458;28;20048;-67
2021/01/16 01:55:23;;;;;;;22.10;16.48;;;1.30;90.70;;;;;;5025647;28;20498;-67
2021/01/16 01:57:56;;;;;;;23.75;16.20;;;1.30;90.70;;;;;;5024736;28;20686;-67
2021/01/16 02:00:22;;;;;;;25.42;15.35;;;1.30;90.70;;;;;;5024349;28;20041;-67
2021/01/16 02:02:49;;;;;;;23.45;16.20;;;1.30;90.80;;;;;;5019633;28;20107;-67
2021/01/16 02:05:17;;;;;;;20.88;15.68;;;1.30;90.90;;;;;;5022763;28;20046;-67
2021/01/16 02:07:45;;;;;;;22.67;14.57;;;1.30;90.90;;;;;;5026599;28;20096;-67
2021/01/16 02:10:25;;;;;;;21.33;15.88;;;1.30;90.90;;;;;;5025609;28;20073;-67
2021/01/16 02:12:53;;;;;;;21.73;15.65;;;1.20;90.90;;;;;;5026022;28;20042;-67
2021/01/16 02:15:25;;;;;;;20.88;15.32;;;1.20;90.90;;;;;;5022236;28;20034;-67
2021/01/16 02:17:56;;;;;;;20.77;14.93;;;1.20;90.90;;;;;;5024561;28;20079;-67
2021/01/16 02:20:28;;;;;;;20.17;14.70;;;1.30;90.90;;;;;;5028248;28;20041;-67
2021/01/16 02:23:11;;;;;;;23.25;14.85;;;1.20;90.90;;;;;;5026260;28;20042;-67
2021/01/16 02:25:40;;;;;;;19.80;14.63;;;1.30;90.90;;;;;;5024102;28;20176;-67
2021/01/16 02:28:27;;;;;;;20.63;14.13;;;1.20;90.90;;;;;;4947530;28;2098782;-67
2021/01/16 02:30:54;;;;;;;22.50;15.45;;;1.20;90.90;;;;;;5024697;28;20495;-67
2021/01/16 02:33:25;;;;;;;20.88;15.40;;;1.20;90.90;;;;;;5023025;28;20144;-67
2021/01/16 02:36:25;;;;;;;20.27;14.35;;;1.20;91.00;;;;;;5024996;28;20668;-67
2021/01/16 02:39:02;;;;;;;22.73;15.10;;;1.20;90.90;;;;;;5023973;28;20069;-67
2021/01/16 02:41:51;;;;;;;21.77;14.65;;;1.20;90.90;;;;;;5023401;28;20125;-67
2021/01/16 02:44:26;;;;;;;19.73;15.43;;;1.20;91.00;;;;;;5021516;28;20043;-67
2021/01/16 02:47:02;;;;;;;20.85;15.80;;;1.20;91.10;;;;;;5024739;28;20045;-67
2021/01/16 02:49:40;;;;;;;19.42;15.50;;;1.20;91.20;;;;;;5028451;28;20480;-67
2021/01/16 02:52:12;;;;;;;18.77;14.68;;;1.20;91.20;;;;;;5021479;28;20415;-67
2021/01/16 02:54:40;;;;;;;19.75;13.95;;;1.20;91.10;;;;;;5026730;28;20056;-67
2021/01/16 02:57:08;;;;;;;20.15;15.25;;;1.20;91.40;;;;;;5024073;28;20042;-67
2021/01/16 02:59:36;;;;;;;22.83;15.88;;;1.20;91.10;;;;;;5026775;28;20068;-67
2021/01/16 03:02:07;;;;;;;19.38;14.48;;;1.20;91.20;;;;;;5026362;28;20045;-67
2021/01/16 03:04:33;;;;;;;21.33;15.00;;;1.30;91.20;;;;;;5024875;28;20073;-67
2021/01/16 03:07:00;;;;;;;18.15;14.27;;;1.20;91.10;;;;;;5027593;28;20087;-67
2021/01/16 03:09:29;;;;;;;20.48;14.38;;;1.20;90.90;;;;;;5028094;28;20656;-67
2021/01/16 03:11:56;;;;;;;17.98;13.27;;;1.30;91.00;;;;;;5024066;28;20492;-67
2021/01/16 03:14:24;;;;;;;17.63;14.23;;;1.20;90.90;;;;;;5024262;28;20049;-67
2021/01/16 03:17:07;;;;;;;20.33;14.00;;;1.20;90.80;;;;;;5026202;28;20041;-67
2021/01/16 03:19:35;;;;;;;19.58;14.65;;;1.20;91.10;;;;;;5019785;28;20480;-67
2021/01/16 03:22:06;;;;;;;17.95;13.32;;;1.30;90.90;;;;;;5023047;28;20049;-67
2021/01/16 03:24:31;;;;;;;17.77;13.52;;;1.20;90.80;;;;;;5024257;28;20045;-67
2021/01/16 03:26:57;;;;;;;20.90;13.80;;;1.20;90.90;;;;;;5023683;28;20381;-67
2021/01/16 03:29:23;;;;;;;20.88;13.65;;;1.40;91.00;;;;;;5025263;28;20034;-67
2021/01/16 03:31:48;;;;;;;17.08;14.07;;;1.20;91.10;;;;;;5024765;28;20034;-67
2021/01/16 03:34:14;;;;;;;18.48;14.85;;;1.20;90.90;;;;;;5022951;28;20128;-67
2021/01/16 03:36:40;;;;;;;19.25;14.23;;;1.30;90.90;;;;;;5021963;28;20034;-67
2021/01/16 03:39:05;;;;;;;17.98;13.20;;;1.30;91.10;;;;;;5022601;28;20033;-67
2021/01/16 03:41:31;;;;;;;18.90;13.93;;;1.30;91.10;;;;;;5021374;28;20048;-67
2021/01/16 03:43:57;;;;;;;17.95;14.40;;;1.20;90.70;;;;;;5023353;28;20045;-67
2021/01/16 03:46:22;;;;;;;17.30;13.60;;;1.30;90.90;;;;;;5020735;28;20042;-67
2021/01/16 03:48:48;;;;;;;21.40;14.05;;;1.20;90.80;;;;;;5018485;28;20576;-67
2021/01/16 03:51:14;;;;;;;21.05;14.30;;;1.20;90.90;;;;;;5018670;28;20120;-67
2021/01/16 03:53:40;;;;;;;18.42;13.45;;;1.20;90.90;;;;;;5020282;28;20480;-67
2021/01/16 03:56:05;;;;;;;21.83;15.18;;;1.20;90.90;;;;;;5025555;28;20476;-67
2021/01/16 03:58:31;;;;;;;21.05;14.93;;;1.40;90.90;;;;;;5025410;28;20066;-67
2021/01/16 04:00:57;;;;;;;21.02;14.05;;;1.20;90.90;;;;;;5018847;28;20044;-67
2021/01/16 04:03:22;;;;;;;19.90;13.85;;;1.20;90.90;;;;;;5019248;28;20041;-67
2021/01/16 04:05:48;;;;;;;18.23;14.02;;;1.20;90.90;;;;;;5024754;28;20476;-67
2021/01/16 04:08:14;;;;;;;17.85;13.85;;;1.20;90.90;;;;;;5018843;28;20096;-67
2021/01/16 04:10:40;;;;;;;18.92;14.88;;;1.20;90.90;;;;;;5020204;28;20037;-67
2021/01/16 04:13:06;;;;;;;19.38;14.60;;;1.20;90.90;;;;;;5025496;28;20034;-67
2021/01/16 04:15:31;;;;;;;22.02;14.50;;;1.20;91.00;;;;;;5018907;28;20048;-67
2021/01/16 04:17:57;;;;;;;20.00;13.93;;;1.10;91.20;;;;;;5027426;28;20041;-67
2021/01/16 04:20:23;;;;;;;20.92;13.85;;;1.10;91.10;;;;;;5025157;28;20045;-67
2021/01/16 04:22:51;;;;;;;21.40;14.30;;;1.10;91.00;;;;;;5024796;28;20502;-67
2021/01/16 04:25:17;;;;;;;20.90;14.70;;;1.10;91.00;;;;;;5025122;28;20061;-67
2021/01/16 04:27:43;;;;;;;21.15;14.52;;;1.10;90.90;;;;;;5024111;28;20053;-67
2021/01/16 04:30:09;;;;;;;20.38;15.02;;;1.00;91.10;;;;;;5022941;28;20040;-67
2021/01/16 04:32:35;;;;;;;18.60;13.70;;;1.00;91.00;;;;;;5020096;28;20042;-67
2021/01/16 04:35:00;;;;;;;20.15;14.80;;;1.00;91.10;;;;;;5024226;28;20056;-67
2021/01/16 04:37:26;;;;;;;22.63;13.93;;;1.00;91.10;;;;;;5028376;28;20679;-67
2021/01/16 04:39:52;;;;;;;19.70;14.02;;;1.00;91.30;;;;;;5024429;28;20142;-67
2021/01/16 04:42:18;;;;;;;21.10;13.43;;;1.20;91.30;;;;;;5024240;28;20502;-67
2021/01/16 04:44:47;;;;;;;20.00;14.30;;;1.10;91.30;;;;;;5029556;28;20041;-67
2021/01/16 04:47:21;;;;;;;16.80;13.18;;;1.00;91.20;;;;;;5026872;28;20045;-67
2021/01/16 04:49:48;;;;;;;19.40;13.70;;;1.10;91.10;;;;;;5027624;28;20038;-67
2021/01/16 04:52:20;;;;;;;22.17;14.25;;;1.10;91.10;;;;;;5026985;28;20042;-67
2021/01/16 04:54:46;;;;;;;20.15;13.90;;;1.10;91.10;;;;;;5025490;28;20037;-67
2021/01/16 04:57:13;;;;;;;17.50;13.68;;;1.10;91.00;;;;;;5020733;28;20117;-67
2021/01/16 04:59:39;;;;;;;18.80;13.77;;;1.10;91.10;;;;;;5023537;28;20099;-67
2021/01/16 05:02:09;;;;;;;18.00;13.68;;;1.10;91.20;;;;;;5026143;28;20044;-67
2021/01/16 05:04:39;;;;;;;16.88;13.55;;;1.10;91.20;;;;;;5025659;28;20412;-67
2021/01/16 05:07:09;;;;;;;20.90;13.98;;;1.10;91.10;;;;;;5028093;28;20029;-67
2021/01/16 05:09:40;;;;;;;19.98;13.98;;;1.10;91.20;;;;;;5026899;28;20060;-67
2021/01/16 05:12:27;;;;;;;18.92;13.60;;;1.10;91.20;;;;;;5026162;28;20049;-67
2021/01/16 05:15:19;;;;;;;21.02;13.98;;;1.10;91.20;;;;;;5026091;28;20045;-67
2021/01/16 05:17:52;;;;;;;19.95;12.68;;;1.20;91.20;;;;;;5023073;28;20038;-67
2021/01/16 05:20:19;;;;;;;18.73;13.55;;;1.20;91.30;;;;;;5028655;28;20062;-67
2021/01/16 05:22:44;;;;;;;19.02;14.60;;;1.20;91.40;;;;;;5025766;28;20037;-67
2021/01/16 05:25:11;;;;;;;18.77;13.77;;;1.20;91.60;;;;;;5025166;28;20427;-67
2021/01/16 05:27:37;;;;;;;19.25;15.30;;;1.20;91.70;;;;;;5019527;28;20095;-67
2021/01/16 05:30:10;;;;;;;20.15;15.07;;;1.20;91.50;;;;;;5024016;28;20033;-67
2021/01/16 05:32:36;;;;;;;22.70;16.38;;;1.20;91.40;;;;;;5021826;28;20040;-67
2021/01/16 05:35:14;;;;;;;17.67;14.05;;;1.20;91.50;;;;;;5023096;28;20045;-67
2021/01/16 05:37:42;;;;;;;20.48;14.73;;;1.10;91.60;;;;;;5020027;28;20037;-67
2021/01/16 05:40:09;;;;;;;22.63;14.82;;;1.10;91.40;;;;;;5026110;28;20041;-67
2021/01/16 05:42:35;;;;;;;21.13;15.48;;;1.10;91.20;;;;;;5026347;28;20057;-67
2021/01/16 05:45:01;;;;;;;20.73;15.88;;;1.00;91.40;;;;;;5022900;28;20052;-67
2021/01/16 05:47:28;;;;;;;20.13;14.73;;;1.10;91.50;;;;;;5023520;28;21161;-67
2021/01/16 05:49:54;;;;;;;19.33;14.95;;;1.00;91.60;;;;;;5026744;28;20464;-67
2021/01/16 05:52:20;;;;;;;19.42;14.32;;;1.00;91.80;;;;;;5025394;28;20053;-67
2021/01/16 05:54:45;;;;;;;20.17;15.27;;;0.90;91.70;;;;;;5021765;28;20155;-67
2021/01/16 05:57:16;;;;;;;19.98;14.20;;;0.90;91.80;;;;;;5022046;28;20034;-67
2021/01/16 05:59:45;;;;;;;24.08;15.68;;;0.90;91.90;;;;;;5023961;28;20073;-67
2021/01/16 06:02:13;;;;;;;19.30;14.73;;;0.90;91.90;;;;;;5022029;28;20038;-67
2021/01/16 06:04:46;;;;;;;19.90;14.73;;;0.80;91.90;;;;;;5025667;28;20033;-67
2021/01/16 06:07:13;;;;;;;18.15;14.35;;;0.80;92.30;;;;;;5019928;28;20583;-67
2021/01/16 06:09:40;;;;;;;19.00;14.70;;;0.80;92.00;;;;;;5023470;28;20057;-67
2021/01/16 06:12:11;;;;;;;19.90;15.70;;;0.80;91.90;;;;;;5024272;28;20033;-67
2021/01/16 06:14:44;;;;;;;23.65;15.73;;;0.80;91.90;;;;;;5022454;28;20045;-67
2021/01/16 06:17:12;;;;;;;21.92;16.33;;;0.80;92.00;;;;;;5023947;28;20056;-67
2021/01/16 06:19:47;;;;;;;19.25;14.70;;;0.80;92.00;;;;;;5024501;28;20034;-67
2021/01/16 06:22:15;;;;;;;22.63;15.10;;;0.80;92.20;;;;;;5021656;28;20128;-67
2021/01/16 06:24:48;;;;;;;23.25;15.73;;;0.80;92.00;;;;;;5026261;28;21606;-67
2021/01/16 06:27:23;;;;;;;25.05;16.40;;;0.70;92.20;;;;;;5025307;28;20037;-67
2021/01/16 06:30:01;;;;;;;21.58;14.88;;;0.70;92.30;;;;;;5026333;28;20099;-67
2021/01/16 06:32:28;;;;;;;24.20;15.13;;;0.70;92.50;;;;;;5025187;28;20060;-67
2021/01/16 06:35:08;;;;;;;23.20;15.50;;;0.70;92.50;;;;;;5022575;28;20175;-67
2021/01/16 06:37:45;;;;;;;19.90;14.93;;;0.70;92.50;;;;;;5020984;28;20033;-67
2021/01/16 06:40:12;;;;;;;23.88;14.55;;;0.70;92.40;;;;;;5028330;28;21860;-67
2021/01/16 06:42:39;;;;;;;22.67;14.93;;;0.70;92.40;;;;;;5024012;28;20038;-67
2021/01/16 06:45:10;;;;;;;20.98;15.75;;;0.80;92.20;;;;;;5022717;28;20205;-67
2021/01/16 06:47:38;;;;;;;20.73;14.90;;;0.80;92.30;;;;;;5022836;28;20067;-67
2021/01/16 06:50:07;;;;;;;19.40;15.30;;;0.80;92.40;;;;;;5028081;28;20113;-67
2021/01/16 06:52:38;;;;;;;21.95;15.93;;;0.80;92.50;;;;;;5025070;28;20045;-67
2021/01/16 06:55:06;;;;;;;23.42;15.90;;;0.80;92.40;;;;;;5023713;28;20072;-67
2021/01/16 06:57:35;;;;;;;19.80;14.80;;;0.80;92.50;;;;;;5018210;28;20041;-67
2021/01/16 07:00:06;;;;;;;23.25;16.40;;;0.80;92.40;;;;;;5024561;28;20088;-67
2021/01/16 07:02:36;;;;;;;20.08;14.68;;;0.90;92.40;;;;;;5025722;28;20045;-67
2021/01/16 07:05:17;;;;;;;19.58;14.75;;;0.80;92.30;;;;;;5020731;28;20625;-67
2021/01/16 07:07:47;;;;;;;20.63;15.45;;;0.80;92.10;;;;;;5025346;28;20040;-67
2021/01/16 07:10:17;;;;;;;23.45;14.63;;;0.80;92.00;;;;;;5024233;28;20491;-68
2021/01/16 07:12:48;;;;;;;21.55;15.18;;;0.80;92.00;;;;;;5023786;28;20160;-67
2021/01/16 07:15:20;;;;;;;21.20;14.98;;;0.80;92.00;;;;;;5024702;28;20037;-67
2021/01/16 07:17:46;;;;;;;22.33;15.18;;;0.80;91.90;;;;;;5023885;28;20459;-67
2021/01/16 07:20:13;;;;;;;24.08;15.95;;;0.80;91.90;;;;;;5025297;28;20041;-67
2021/01/16 07:22:41;;;;;;;20.73;14.85;;;0.80;92.00;;;;;;5023644;28;20049;-67
2021/01/16 07:25:09;;;;;;;20.42;14.95;;;0.80;92.00;;;;;;5025030;28;20037;-67
2021/01/16 07:27:36;;;;;;;23.17;15.63;;;0.80;92.10;;;;;;5021491;28;20049;-67
2021/01/16 07:30:09;;;;;;;28.75;15.77;;;0.80;92.00;;;;;;5025566;28;20533;-67
2021/01/16 07:32:49;;;;;;;21.92;15.48;;;0.80;92.00;;;;;;5024609;28;20103;-67
2021/01/16 07:35:19;;;;;;;18.90;15.38;;;0.80;92.10;;;;;;5021792;28;20037;-67
2021/01/16 07:37:46;;;;;;;21.23;15.68;;;0.80;92.10;;;;;;5025397;28;20446;-67
2021/01/16 07:40:22;;;;;;;21.33;16.00;;;0.80;92.20;;;;;;5026668;28;20121;-67
2021/01/16 07:42:56;;;;;;;19.30;15.40;;;0.80;92.20;;;;;;5023132;28;20140;-67
2021/01/16 07:45:31;;;;;;;24.25;15.63;;;0.80;92.20;;;;;;5026889;28;20073;-67
2021/01/16 07:48:00;;;;;;;21.70;15.95;;;0.80;92.10;;;;;;5021805;28;20046;-67
2021/01/16 07:50:31;;;;;;;24.40;15.90;;;0.80;92.20;;;;;;5027602;28;20072;-67
2021/01/16 07:53:05;;;;;;;20.17;14.70;;;0.80;92.20;;;;;;5022796;28;20079;-67
2021/01/16 07:55:37;;;;;;;23.75;16.67;;;0.80;92.30;;;;;;5023333;28;20089;-67
2021/01/16 07:58:42;;;;;;;24.90;16.83;;;0.80;92.30;;;;;;5022084;28;20173;-67
2021/01/16 08:01:22;;;;;;;21.75;15.38;;;0.90;92.40;;;;;;5025427;28;20114;-67
2021/01/16 08:04:10;;;;;;;24.95;15.55;;;0.80;92.30;;;;;;5021609;28;20492;-67
2021/01/16 08:07:02;;;;;;;20.92;14.75;;;0.90;92.30;;;;;;5025498;28;20053;-67
2021/01/16 08:09:50;;;;;;;24.98;16.67;;;0.90;92.30;;;;;;5028035;28;20659;-67
2021/01/16 08:12:27;;;;;;;20.98;16.25;;;0.90;92.30;;;;;;5028061;28;20131;-67
2021/01/16 08:14:55;;;;;;;22.13;15.55;;;0.90;92.30;;;;;;5025264;28;20045;-67
2021/01/16 08:17:47;;;;;;;22.35;15.02;;;1.00;92.30;;;;;;5023026;28;20041;-66
2021/01/16 08:20:19;;;;;;;21.48;15.57;;;0.90;92.20;;;;;;5023275;28;20053;-67
2021/01/16 08:22:51;;;;;;;20.23;15.25;;;0.90;92.20;;;;;;5025749;28;20159;-67
2021/01/16 08:25:25;;;;;;;29.58;14.77;;;0.90;92.20;;;;;;5027479;28;20042;-67
2021/01/16 08:27:53;;;;;;;22.67;15.40;;;1.00;92.20;;;;;;5029318;28;20040;-67
2021/01/16 08:30:22;;;;;;;19.33;15.57;;;0.90;92.30;;;;;;5026460;28;20036;-67
2021/01/16 08:32:59;;;;;;;21.65;15.80;;;1.00;92.40;;;;;;5028855;28;20475;-67
2021/01/16 08:35:48;;;;;;;23.92;16.33;;;1.00;92.40;;;;;;5030318;28;20415;-67
2021/01/16 08:38:17;;;;;;;23.55;15.77;;;1.00;92.30;;;;;;5025816;28;20030;-67
2021/01/16 08:40:50;;;;;;;22.55;15.18;;;1.00;92.40;;;;;;5027475;28;20029;-67
2021/01/16 08:43:44;;;;;;;20.02;14.77;;;1.00;92.40;;;;;;5025061;28;20060;-67
2021/01/16 08:46:12;;;;;;;23.33;15.65;;;1.00;92.30;;;;;;5022825;28;20041;-67
2021/01/16 08:48:39;;;;;;;22.23;15.80;;;1.00;92.40;;;;;;5022161;28;20191;-67
2021/01/16 08:51:33;;;;;;;21.10;15.30;;;1.00;92.30;;;;;;5026188;28;20388;-67
2021/01/16 08:54:18;;;;;;;21.90;16.17;;;1.00;92.30;;;;;;5026242;28;20430;-66
2021/01/16 08:56:47;;;;;;;21.08;14.77;;;1.10;92.30;;;;;;5025627;28;20180;-67
2021/01/16 08:59:27;;;;;;;19.63;14.77;;;1.10;92.30;;;;;;5026260;28;20111;-67
2021/01/16 09:02:10;;;;;;;24.45;15.40;;;1.10;92.20;;;;;;5027591;28;20060;-66
2021/01/16 09:04:40;;;;;;;22.75;15.48;;;1.10;92.10;;;;;;5027552;28;20049;-67
2021/01/16 09:07:11;;;;;;;19.67;15.02;;;1.20;92.10;;;;;;5027963;28;20376;-67
2021/01/16 09:09:37;;;;;;;25.05;15.20;;;1.20;92.10;;;;;;5027429;28;20053;-67
2021/01/16 09:12:11;;;;;;;23.00;15.57;;;1.30;92.20;;;;;;5024679;28;20034;-67
2021/01/16 09:14:40;;;;;;;20.38;15.40;;;1.20;92.20;;;;;;5020603;28;20046;-66
2021/01/16 09:17:16;;;;;;;22.17;15.70;;;1.30;92.10;;;;;;5026752;28;20045;-66
2021/01/16 09:19:41;;;;;;;22.58;15.93;;;1.30;92.20;;;;;;5024735;28;20072;-66
2021/01/16 09:22:28;;;;;;;20.08;15.10;;;1.30;92.30;;;;;;5027107;28;20126;-67
2021/01/16 09:25:20;;;;;;;20.58;15.57;;;1.30;92.20;;;;;;5025216;28;20048;-67
2021/01/16 09:27:48;;;;;;;19.73;14.75;;;1.30;92.10;;;;;;5024492;28;20034;-67
2021/01/16 09:30:30;;;;;;;23.13;15.95;;;1.30;92.10;;;;;;5027587;28;20424;-67
2021/01/16 09:32:56;;;;;;;19.85;15.90;;;1.30;92.00;;;;;;5030922;28;20178;-66
2021/01/16 09:35:35;;;;;;;20.13;15.80;;;1.30;92.20;;;;;;5024796;28;20088;-66
2021/01/16 09:38:01;;;;;;;19.08;14.63;;;1.30;92.00;;;;;;5018446;28;20041;-67
2021/01/16 09:40:36;;;;;;;26.42;15.55;;;1.30;92.00;;;;;;5025252;28;20053;-67
2021/01/16 09:43:21;;;;;;;21.03;15.23;;;1.40;92.00;;;;;;5030462;28;20041;-67
2021/01/16 09:45:50;;;;;;;21.48;15.55;;;1.40;92.10;;;;;;5026792;28;20527;-66
2021/01/16 09:48:41;;;;;;;21.80;15.45;;;1.40;92.00;;;;;;5026092;28;20036;-67
2021/01/16 09:51:09;;;;;;;19.25;15.23;;;1.50;92.00;;;;;;5023076;28;20065;-66
2021/01/16 09:53:35;;;;;;;20.30;15.20;;;1.50;91.70;;;;;;5023496;28;20049;-67
2021/01/16 09:56:02;;;;;;;21.25;13.85;;;1.50;91.80;;;;;;5024989;28;20060;-66
2021/01/16 09:58:40;;;;;;;19.08;14.88;;;1.50;91.80;;;;;;5032143;28;20037;-67
2021/01/16 10:01:23;;;;;;;18.33;14.38;;;1.60;91.50;;;;;;5025144;28;20029;-67
2021/01/16 10:03:51;;;;;;;18.35;15.02;;;1.50;91.40;;;;;;5021688;28;20404;-67
2021/01/16 10:06:19;;;;;;;21.17;15.57;;;1.60;91.50;;;;;;5022230;28;20045;-67
2021/01/16 10:08:49;;;;;;;19.45;14.82;;;1.60;91.40;;;;;;5023488;28;20041;-67
2021/01/16 10:11:41;;;;;;;19.67;16.30;;;1.60;91.50;;;;;;5027153;28;20085;-67
2021/01/16 10:14:34;;;;;;;20.42;15.65;;;1.60;91.60;;;;;;5022725;28;20459;-67
2021/01/16 10:17:10;;;;;;;26.15;17.20;;;1.80;91.50;;;;;;5026607;28;20060;-67
2021/01/16 10:19:40;;;;;;;22.13;14.73;;;1.70;91.60;;;;;;5026539;28;20037;-67
2021/01/16 10:22:10;;;;;;;20.13;15.32;;;1.70;91.50;;;;;;5024191;28;20038;-67
2021/01/16 10:24:43;;;;;;;18.70;14.65;;;1.70;91.50;;;;;;5025109;28;20044;-66
2021/01/16 10:27:09;;;;;;;22.83;14.98;;;1.70;91.20;;;;;;5024855;28;20083;-67
2021/01/16 10:29:40;;;;;;;18.23;15.05;;;1.70;91.10;;;;;;5027108;28;20441;-67
2021/01/16 10:32:23;;;;;;;18.88;14.80;;;1.80;91.20;;;;;;5024163;28;20042;-67
2021/01/16 10:34:50;;;;;;;25.80;13.73;;;1.80;91.30;;;;;;5022147;28;20396;-67
2021/01/16 10:37:17;;;;;;;17.40;13.98;;;1.80;91.30;;;;;;5027070;28;20052;-67
2021/01/16 10:39:50;;;;;;;18.75;14.60;;;1.80;91.10;;;;;;5023638;28;20495;-67
2021/01/16 10:42:18;;;;;;;19.25;15.25;;;1.80;91.10;;;;;;5027534;28;20046;-67
2021/01/16 10:44:45;;;;;;;21.88;15.50;;;1.90;91.20;;;;;;5027836;28;20048;-66
2021/01/16 10:47:34;;;;;;;17.85;14.52;;;1.90;91.20;;;;;;5025012;28;20069;-67
2021/01/16 10:50:13;;;;;;;18.35;14.50;;;1.90;91.10;;;;;;5025949;28;20037;-67
2021/01/16 10:52:40;;;;;;;18.80;14.40;;;1.90;91.00;;;;;;5024519;28;20037;-67
2021/01/16 10:55:07;;;;;;;17.63;13.95;;;1.90;91.00;;;;;;5025566;28;20033;-67
2021/01/16 10:57:47;;;;;;;18.50;14.05;;;1.90;90.70;;;;;;5028458;28;20048;-67
2021/01/16 11:00:19;;;;;;;18.42;14.18;;;1.90;90.20;;;;;;5028461;28;20106;-67
2021/01/16 11:02:47;;;;;;;17.83;14.18;;;1.90;90.60;;;;;;5026181;28;20048;-66
2021/01/16 11:05:15;;;;;;;18.00;14.32;;;1.90;90.50;;;;;;5020888;28;20038;-67
2021/01/16 11:07:46;;;;;;;17.25;13.55;;;1.90;90.40;;;;;;5025061;28;20045;-67
2021/01/16 11:10:16;;;;;;;19.63;13.65;;;2.00;90.40;;;;;;5024859;28;20038;-67
2021/01/16 11:12:43;;;;;;;18.83;13.80;;;2.00;90.20;;;;;;5023664;28;20069;-67
2021/01/16 11:15:30;;;;;;;19.25;14.20;;;1.90;90.30;;;;;;5016880;28;20068;-67
2021/01/16 11:18:00;;;;;;;19.10;13.75;;;2.00;90.20;;;;;;5022661;28;20038;-67
2021/01/16 11:20:31;;;;;;;17.08;14.07;;;2.00;90.10;;;;;;5024513;28;20029;-67
2021/01/16 11:23:34;;;;;;;17.63;13.90;;;2.00;90.20;;;;;;5021124;28;20092;-67
2021/01/16 11:26:10;;;;;;;18.92;13.95;;;2.00;90.40;;;;;;5024652;28;20099;-67
2021/01/16 11:28:57;;;;;;;18.95;12.57;;;2.10;89.90;;;;;;5023705;28;20042;-67
2021/01/16 11:31:35;;;;;;;16.10;12.70;;;2.10;90.20;;;;;;5022285;28;20108;-67
2021/01/16 11:34:11;;;;;;;15.70;12.60;;;2.10;89.90;;;;;;5026882;28;20061;-67
2021/01/16 11:36:52;;;;;;;15.82;12.02;;;2.10;89.60;;;;;;5027886;28;20442;-67
2021/01/16 11:39:40;;;;;;;16.77;12.10;;;2.20;89.40;;;;;;5022104;28;20034;-67
2021/01/16 11:42:06;;;;;;;14.70;11.90;;;2.20;89.50;;;;;;5021175;28;20037;-67
2021/01/16 11:44:54;;;;;;;17.38;12.63;;;2.20;88.80;;;;;;5027176;28;20044;-67
2021/01/16 11:47:21;;;;;;;14.32;11.73;;;2.30;89.40;;;;;;5028526;28;20112;-67
2021/01/16 11:49:47;;;;;;;13.68;11.77;;;2.30;88.40;;;;;;5029787;28;20037;-67
2021/01/16 11:52:13;;;;;;;13.73;11.35;;;2.40;87.70;;;;;;5029678;28;20395;-67
2021/01/16 11:54:39;;;;;;;15.32;11.70;;;2.40;87.80;;;;;;5030871;28;20077;-67
2021/01/16 11:57:14;;;;;;;13.90;11.27;;;2.40;87.90;;;;;;5031137;28;20059;-67
2021/01/16 11:59:41;;;;;;;15.68;11.98;;;2.40;87.50;;;;;;5022529;28;20038;-67
2021/01/16 12:02:12;;;;;;;15.77;11.75;;;2.40;88.00;;;;;;5027491;28;20095;-67
2021/01/16 12:04:42;;;;;;;13.63;10.65;;;2.50;88.00;;;;;;5028269;28;20108;-67
2021/01/16 12:07:12;;;;;;;13.88;10.65;;;2.90;86.20;;;;;;5023589;28;20168;-67
2021/01/16 12:09:39;;;;;;;14.95;9.93;;;2.60;86.70;;;;;;5027302;28;20033;-67
2021/01/16 12:12:06;;;;;;;13.80;10.05;;;2.60;86.70;;;;;;5027972;28;20052;-67
2021/01/16 12:14:34;;;;;;;16.30;11.50;;;2.60;85.60;;;;;;5026291;28;20052;-67
2021/01/16 12:17:04;;;;;;;15.95;11.30;;;2.70;85.10;;;;;;5028446;28;20045;-67
2021/01/16 12:19:33;;;;;;;14.18;11.35;;;2.60;84.20;;;;;;5026208;28;20686;-67
2021/01/16 12:22:09;;;;;;;14.45;10.52;;;2.60;83.40;;;;;;5027301;28;20480;-67
2021/01/16 12:24:36;;;;;;;12.85;10.23;;;2.60;84.00;;;;;;5027194;28;20037;-67
2021/01/16 12:27:05;;;;;;;13.82;11.57;;;2.60;83.70;;;;;;5028752;28;20042;-67
2021/01/16 12:29:39;;;;;;;18.88;11.30;;;2.70;84.70;;;;;;5028434;28;20418;-67
2021/01/16 12:32:10;;;;;;;14.63;10.10;;;2.70;84.80;;;;;;5026584;28;20541;-67
2021/01/16 12:34:53;;;;;;;14.70;11.60;;;2.70;84.80;;;;;;5030408;28;20041;-67
2021/01/16 12:37:31;;;;;;;17.60;11.25;;;2.70;84.50;;;;;;5031480;28;20042;-67
2021/01/16 12:39:57;;;;;;;15.40;11.10;;;2.70;84.60;;;;;;5025507;28;20033;-67
2021/01/16 12:42:23;;;;;;;16.10;11.98;;;2.60;84.70;;;;;;5027785;28;20071;-67
2021/01/16 12:44:50;;;;;;;16.13;11.43;;;2.70;84.20;;;;;;5024451;28;20077;-67
2021/01/16 12:47:20;;;;;;;16.10;12.43;;;2.70;83.90;;;;;;5026357;28;20729;-67
2021/01/16 12:49:51;;;;;;;15.50;11.00;;;2.60;83.00;;;;;;5025911;28;20038;-67
2021/01/16 12:52:27;;;;;;;19.45;12.13;;;2.60;83.50;;;;;;5029365;28;20065;-66
2021/01/16 12:55:10;;;;;;;15.52;11.98;;;2.60;83.30;;;;;;5024874;28;20036;-68